Terminal Aerodrome Forecast
Issued by NWS Sioux Falls, SD

Home | Current Version | Previous Version | Graphics & Text | Print | Product List | Glossary Off
Versions: 1 2 3 4 5 6 7 8 9 10 11 12 13 14 15 16 17 18 19

000
FTUS43 KFSD 221204 AAA
TAFFSD
TAF AMD
KFSD 221204Z 2212/2312 18005KT 3SM BR SCT004
     FM221230 18005KT 1SM BR OVC003
     FM221700 19007KT P6SM SCT005
     FM221800 17010KT P6SM SCT025
     FM230500 18006KT P6SM BKN100=

USA.gov is the U.S. government's official web portal to all federal, state and local government web resources and services.